»·PEaware :: ASA359 KPHX-KSNA

ASA359 :: KPHX-KSNA

FLIGHT INFORMATION

Flight Status: Arrived
Operator:
Alaska Airlines
More flights by this operator :: More flights under this callsign
Pilot: Max W. (2591)
Aircraft: BOEING 727-200
(B722)
More flights by this aircraft type
Origin: KPHX Phoenix Sky Harbor Intl
United States
Destination: KSNA John Wayne-Orange Co
United States
More flights between these airports :: More routes between these airports
Route: BXK4 PSP KAYOH7
File this flight plan on PilotEdge
Remarks: NON RVSM
Altitude:
(Current/Filed)
28,000ft
Speed:
(Current/Filed)
450kts
Departed: 04-Sep-18 07:31 PM
Arrived: 04-Sep-18 08:30 PM
Distance/Time
Traveled:
293nm/0:59
Distance/Time
To Go:
Arrived

Flight Plot

Page will automatically refresh every two minutes.

Flight plan parsing failed; only flown route is shown


Map Options




Map Legend


Flown Route
Filed Route
Departure Airport
Arrival Airport
Navaid (VOR, NDB)
Fix

Horizontal Profiles

Position Reports

Time Latitude Longitude Heading Altitude Ground
Speed
04-Sep-18 19:14 33.434036 -111.997366 77 1121ft 0kts
04-Sep-18 19:15 33.434036 -111.997366 77 1121ft 0kts
04-Sep-18 19:16 33.434036 -111.997366 77 1121ft 0kts
04-Sep-18 19:17 33.434036 -111.997366 77 1121ft 0kts
04-Sep-18 19:18 33.434036 -111.997366 77 1121ft 0kts
04-Sep-18 19:19 33.434036 -111.997366 77 1121ft 0kts
04-Sep-18 19:20 33.434036 -111.997366 77 1121ft 0kts
04-Sep-18 19:21 33.434036 -111.997366 77 1121ft 0kts
04-Sep-18 19:22 33.433998 -111.997992 137 1121ft 2kts
04-Sep-18 19:23 33.434185 -111.998055 180 1121ft 0kts
04-Sep-18 19:24 33.434185 -111.998055 180 1121ft 0kts
04-Sep-18 19:25 33.434185 -111.998055 180 1121ft 0kts
04-Sep-18 19:26 33.434038 -111.998056 180 1121ft 3kts
04-Sep-18 19:27 33.432637 -111.998098 167 1121ft 9kts
04-Sep-18 19:28 33.432141 -111.995056 90 1121ft 10kts
04-Sep-18 19:29 33.432106 -111.993708 119 1121ft 0kts
04-Sep-18 19:30 33.432106 -111.993708 119 1121ft 0kts
04-Sep-18 19:31 33.431409 -111.993600 201 1121ft 7kts
04-Sep-18 19:32 33.431035 -112.003743 269 1121ft 141kts
04-Sep-18 19:33 33.426307 -112.064592 258 3911ft 214kts
04-Sep-18 19:34 33.406493 -112.139248 252 7616ft 236kts
04-Sep-18 19:35 33.383299 -112.215304 249 11108ft 254kts
04-Sep-18 19:36 33.397886 -112.300194 294 13265ft 317kts
04-Sep-18 19:37 33.436165 -112.398028 294 16606ft 331kts
04-Sep-18 19:38 33.451123 -112.502175 268 19686ft 330kts
04-Sep-18 19:39 33.451196 -112.613412 269 22312ft 340kts
04-Sep-18 19:40 33.452210 -112.726999 269 24427ft 355kts
04-Sep-18 19:41 33.453761 -112.846243 269 26535ft 363kts
04-Sep-18 19:42 33.455442 -112.968496 269 27888ft 385kts
04-Sep-18 19:43 33.462679 -113.103356 273 27883ft 418kts
04-Sep-18 19:44 33.473020 -113.245547 273 27884ft 442kts
04-Sep-18 19:45 33.483797 -113.394453 273 27881ft 457kts
04-Sep-18 19:46 33.494875 -113.546884 273 27877ft 461kts
04-Sep-18 19:47 33.505908 -113.697492 273 27841ft 465kts
04-Sep-18 19:48 33.517269 -113.851543 273 27818ft 467kts
04-Sep-18 19:49 33.528815 -114.006649 273 27817ft 469kts
04-Sep-18 19:51 33.540530 -114.162549 273 27816ft 470kts
04-Sep-18 19:52 33.552347 -114.318320 273 27816ft 471kts
04-Sep-18 19:53 33.564315 -114.474562 274 27815ft 472kts
04-Sep-18 19:54 33.576418 -114.630998 274 27814ft 472kts
04-Sep-18 19:55 33.598073 -114.781824 291 27825ft 475kts
04-Sep-18 19:56 33.649601 -114.927640 290 27817ft 476kts
04-Sep-18 19:57 33.692396 -115.077157 276 27811ft 481kts
04-Sep-18 19:58 33.707684 -115.235209 282 27809ft 475kts
04-Sep-18 19:59 33.728679 -115.389746 283 27783ft 464kts
04-Sep-18 20:00 33.749791 -115.540937 283 27757ft 455kts
04-Sep-18 20:01 33.769910 -115.687332 282 27732ft 449kts
04-Sep-18 20:02 33.789720 -115.834457 282 27713ft 444kts
04-Sep-18 20:03 33.809528 -115.979873 283 27874ft 434kts
04-Sep-18 20:04 33.828405 -116.118867 282 25591ft 435kts
04-Sep-18 20:05 33.847915 -116.263884 282 22555ft 441kts
04-Sep-18 20:06 33.867103 -116.409206 278 19657ft 441kts
04-Sep-18 20:07 33.871947 -116.553899 273 17203ft 429kts
04-Sep-18 20:08 33.877612 -116.690792 273 15889ft 391kts
04-Sep-18 20:09 33.882785 -116.810323 273 15785ft 333kts
04-Sep-18 20:10 33.856767 -116.910776 242 14969ft 302kts
04-Sep-18 20:11 33.819551 -116.997718 242 13984ft 291kts
04-Sep-18 20:12 33.782825 -117.083341 246 12851ft 285kts
04-Sep-18 20:13 33.780051 -117.174362 272 12133ft 264kts
04-Sep-18 20:14 33.780645 -117.262089 272 11311ft 260kts
04-Sep-18 20:15 33.781257 -117.347841 272 10541ft 255kts
04-Sep-18 20:16 33.781774 -117.431774 273 9702ft 249kts
04-Sep-18 20:17 33.782129 -117.513302 273 9100ft 229kts
04-Sep-18 20:18 33.781474 -117.588233 272 8084ft 214kts
04-Sep-18 20:19 33.779755 -117.657788 271 6121ft 210kts
04-Sep-18 20:20 33.778634 -117.721176 271 4572ft 182kts
04-Sep-18 20:21 33.778294 -117.774100 271 3994ft 140kts
04-Sep-18 20:22 33.778154 -117.826259 271 3980ft 157kts
04-Sep-18 20:23 33.806952 -117.865788 15 3976ft 197kts
04-Sep-18 20:24 33.851166 -117.845519 19 3277ft 170kts
04-Sep-18 20:25 33.894174 -117.826024 27 2989ft 162kts
04-Sep-18 20:26 33.887574 -117.776377 123 3002ft 185kts
04-Sep-18 20:27 33.839120 -117.768616 201 2988ft 176kts
04-Sep-18 20:28 33.795633 -117.791354 209 2638ft 176kts
04-Sep-18 20:29 33.760302 -117.814515 211 1830ft 129kts
04-Sep-18 20:30 33.729224 -117.834994 209 1144ft 129kts
04-Sep-18 20:31 33.696855 -117.855435 209 436ft 131kts
04-Sep-18 20:32 33.670363 -117.872123 192 68ft 33kts

Navigation Log

Ident Type
Flight plan parsing failed, navigation log unavailable